Flight Track Log - Related Links

Times and Time Zones

All times are in EDT time to prevent confusion due to time zone crossing. See the RPA3247 flight status page for this flight to view local times or setup timezone preferences in your user account.

Time Position Orientation Groundspeed Altitude Reporting Facility
EDT Latitude Longitude Course Direction KTS MPH feet Rate Location/Type
Thu 08:20:35 PM 38.8167 -77.0333 233° Southwest 144 166 1,500  Level Potomac TRACON
Thu 08:22:00 PM 38.6737 -77.3669 234° Southwest  Level FlightAware
Thu 08:22:34 PM 38.7208 -77.0764 199° South 197 227 4,300  Level Washington Center
Thu 08:23:00 PM 38.6129 -77.4780 247° West  Level FlightAware
Thu 08:23:35 PM 38.7069 -77.1744 260° West 215 247 7,200  Level Washington Center
Thu 08:24:00 PM 38.5667 -77.5999 237° Southwest  Level FlightAware
Thu 08:24:35 PM 38.6933 -77.2700 260° West 247 284 10,000  Level Washington Center
Thu 08:25:00 PM 38.5042 -77.7096 233° Southwest  Level FlightAware
Thu 08:25:35 PM 38.6750 -77.3761 258° West 284 327 12,200  Level Washington Center
Thu 08:26:36 PM 38.6297 -77.4758 240° Southwest 311 358 13,500 1,736 Climbing Washington Center
Thu 08:27:36 PM 38.5800 -77.5861 240° Southwest 330 380 15,700 2,186 Climbing Washington Center
Thu 08:28:34 PM 38.5197 -77.7014 236° Southwest 352 405 17,800 1,866 Climbing Washington Center
Thu 08:29:35 PM 38.4656 -77.8086 237° Southwest 363 418 19,400 1,587 Climbing Washington Center
Thu 08:30:35 PM 38.4072 -77.9181 236° Southwest 369 425 21,000 1,574 Climbing Washington Center
Thu 08:31:37 PM 38.3486 -78.0328 237° Southwest 374 430 22,600 1,563 Climbing Washington Center
Thu 08:32:34 PM 38.2900 -78.1444 236° Southwest 380 437 24,100 1,475 Climbing Washington Center
Thu 08:33:35 PM 38.2292 -78.2589 236° Southwest 386 444 25,500 1,279 Climbing Washington Center
Thu 08:34:36 PM 38.1703 -78.3756 237° Southwest 391 450 26,700 1,041 Climbing Washington Center
Thu 08:35:36 PM 38.1111 -78.4972 238° Southwest 396 456 27,600 900 Climbing Washington Center
Thu 08:36:36 PM 38.0681 -78.6275 247° West 396 456 28,500 864 Climbing Washington Center
Thu 08:37:34 PM 38.0275 -78.7497 247° West 417 480 29,300 756 Climbing Washington Center
Thu 08:38:35 PM 37.9800 -78.8875 246° West 422 486 30,000 347 Climbing Washington Center
Thu 08:39:35 PM 37.9344 -79.0225 247° West 428 493 30,000  Level Washington Center
Thu 08:40:36 PM 37.8739 -79.1697 243° Southwest 428 493 30,000  Level Washington Center
Thu 08:41:35 PM 37.8139 -79.2931 238° Southwest 428 493 30,000  Level Washington Center
Thu 08:42:35 PM 37.7514 -79.4161 237° Southwest 428 493 30,000  Level Washington Center
Thu 08:43:36 PM 37.6869 -79.5386 236° Southwest 423 487 30,000  Level Washington Center
Thu 08:44:34 PM 37.6333 -79.6514 239° Southwest 418 481 30,000  Level Washington Center
Thu 08:45:35 PM 37.5639 -79.7864 237° Southwest 423 487 30,000  Level Washington Center
Thu 08:46:35 PM 37.5011 -79.9111 238° Southwest 429 494 30,000  Level Washington Center
Thu 08:48:13 PM 37.4044 -80.0942 236° Southwest 409 471 30,000  Level Atlanta Center
Thu 08:49:13 PM 37.3417 -80.2175 237° Southwest 409 471 30,000  Level Atlanta Center
Thu 08:50:13 PM 37.2806 -80.3350 237° Southwest 409 471 30,000  Level Atlanta Center
Thu 08:51:13 PM 37.2117 -80.4714 238° Southwest 415 478 30,000  Level Atlanta Center
Thu 08:52:13 PM 37.1483 -80.5914 237° Southwest 415 478 30,000  Level Atlanta Center
Thu 08:53:13 PM 37.0869 -80.7111 237° Southwest 415 478 30,000  Level Atlanta Center
Thu 08:54:13 PM 37.0406 -80.8431 246° West 420 483 30,000  Level Atlanta Center
Thu 08:55:13 PM 36.9975 -80.9567 245° Southwest 413 475 30,000  Level Atlanta Center
Thu 08:56:13 PM 36.9508 -81.0856 246° West 408 470 30,000  Level Atlanta Center
Thu 08:57:13 PM 36.9058 -81.2144 246° West 403 464 30,000  Level Atlanta Center
Thu 08:58:13 PM 36.8586 -81.3406 245° Southwest 403 464 30,000  Level Atlanta Center
Thu 08:59:13 PM 36.8094 -81.4822 247° West 403 464 30,000  Level Atlanta Center
Thu 09:00:13 PM 36.7722 -81.5950 248° West 403 464 30,000  Level Atlanta Center
Thu 09:01:13 PM 36.7267 -81.7208 246° West 398 458 30,000  Level Atlanta Center
Thu 09:02:13 PM 36.6789 -81.8464 245° Southwest 404 465 30,000  Level Atlanta Center
Thu 09:03:13 PM 36.6333 -81.9744 246° West 404 465 30,000  Level Atlanta Center
Thu 09:04:13 PM 36.5811 -82.1128 245° Southwest 404 465 30,000  Level Atlanta Center
Thu 09:05:13 PM 36.5331 -82.2406 245° Southwest 404 465 30,000  Level Atlanta Center
Thu 09:07:13 PM 36.4364 -82.4956 245° Southwest 404 465 30,000  Level Atlanta Center
Thu 09:08:13 PM 36.3900 -82.6228 246° West 406 467 30,000  Level Atlanta Center
Thu 09:09:13 PM 36.3436 -82.7500 246° West 406 467 30,000  Level Atlanta Center
Thu 09:10:13 PM 36.2967 -82.8744 245° Southwest 399 459 30,000  Level Atlanta Center
Thu 09:11:13 PM 36.2478 -83.0011 244° Southwest 404 465 30,000  Level Atlanta Center
Thu 09:12:13 PM 36.2031 -83.1228 246° West 399 459 30,000  Level Atlanta Center
Thu 09:13:13 PM 36.1539 -83.2492 244° Southwest 404 465 30,000  Level Atlanta Center
Thu 09:14:13 PM 36.1044 -83.3756 244° Southwest 404 465 30,000  Level Atlanta Center
Thu 09:15:13 PM 36.0572 -83.4994 245° Southwest 404 465 30,000  Level Atlanta Center
Thu 09:16:13 PM 36.0097 -83.6281 245° Southwest 404 465 30,000  Level Atlanta Center
Thu 09:17:13 PM 35.9600 -83.7514 244° Southwest 404 465 30,000  Level Atlanta Center
Thu 09:18:13 PM 35.9100 -83.8797 244° Southwest 404 465 30,000  Level Atlanta Center
Thu 09:19:13 PM 35.8414 -83.9875 232° Southwest 404 465 30,000  Level Atlanta Center
Thu 09:20:13 PM 35.7642 -84.0925 228° Southwest 409 471 30,000  Level Atlanta Center
Thu 09:21:13 PM 35.6869 -84.1972 228° Southwest 414 476 30,000  Level Atlanta Center
Thu 09:22:13 PM 35.6136 -84.3019 229° Southwest 414 476 30,000  Level Atlanta Center
Thu 09:23:13 PM 35.5361 -84.4114 229° Southwest 414 476 30,000  Level Atlanta Center
Thu 09:24:13 PM 35.4586 -84.5156 228° Southwest 414 476 30,000  Level Atlanta Center
Thu 09:25:13 PM 35.3811 -84.6219 228° Southwest 414 476 30,000  Level Atlanta Center
Thu 09:26:13 PM 35.3117 -84.7183 229° Southwest 414 476 30,000  Level Atlanta Center
Thu 09:27:13 PM 35.2317 -84.8244 227° Southwest 414 476 30,000  Level Atlanta Center
Thu 09:28:13 PM 35.1558 -84.9306 229° Southwest 419 482 30,000  Level Atlanta Center
Thu 09:29:13 PM 35.0778 -85.0389 229° Southwest 419 482 30,000  Level Atlanta Center
Thu 09:30:13 PM 34.9978 -85.1442 227° Southwest 419 482 30,000  Level Atlanta Center
Thu 09:31:13 PM 34.9194 -85.2522 229° Southwest 419 482 30,000  Level Atlanta Center
Thu 09:32:13 PM 34.8433 -85.3575 229° Southwest 424 488 30,000  Level Atlanta Center
Thu 09:33:13 PM 34.7628 -85.4647 228° Southwest 418 481 30,000  Level Atlanta Center
Thu 09:34:13 PM 34.6842 -85.5694 228° Southwest 418 481 30,000  Level Atlanta Center
Thu 09:35:13 PM 34.6058 -85.6742 228° Southwest 418 481 30,000  Level Atlanta Center
Thu 09:36:13 PM 34.5269 -85.7811 228° Southwest 418 481 30,000  Level Atlanta Center
Thu 09:37:13 PM 34.4397 -85.8925 227° Southwest 423 487 30,000  Level Atlanta Center
Thu 09:38:13 PM 34.3694 -85.9842 227° Southwest 423 487 30,000  Level Atlanta Center
Thu 09:39:13 PM 34.2928 -86.0906 229° Southwest 423 487 30,000  Level Atlanta Center
Thu 09:40:13 PM 34.2117 -86.1967 227° Southwest 423 487 30,000  Level Atlanta Center
Thu 09:41:13 PM 34.1303 -86.3025 227° Southwest 423 487 30,000  Level Atlanta Center
Thu 09:42:13 PM 34.0492 -86.4081 227° Southwest 428 493 30,000  Level Atlanta Center
Thu 09:43:13 PM 33.9697 -86.5111 227° Southwest 433 498 30,000  Level Atlanta Center
Thu 09:44:13 PM 33.8883 -86.6139 226° Southwest 433 498 30,000  Level Atlanta Center
Thu 09:45:13 PM 33.8133 -86.7117 227° Southwest 429 494 30,000  Level Atlanta Center
Thu 09:46:13 PM 33.7253 -86.8261 227° Southwest 440 506 30,000  Level Atlanta Center
Thu 09:47:13 PM 33.6433 -86.9333 227° Southwest 440 506 30,000  Level Atlanta Center
Thu 09:48:13 PM 33.5717 -87.0456 233° Southwest 435 501 30,000  Level Atlanta Center
Thu 09:49:13 PM 33.4981 -87.1578 232° Southwest 430 495 30,000  Level Atlanta Center
Thu 09:50:13 PM 33.4242 -87.2694 232° Southwest 435 501 30,000  Level Atlanta Center
Thu 09:51:56 PM 33.2875 -87.4744 231° Southwest 416 479 30,000  Level Memphis Center
Thu 09:52:56 PM 33.2131 -87.5861 231° Southwest 421 484 30,000  Level Memphis Center
Thu 09:53:56 PM 33.1381 -87.6953 231° Southwest 428 493 30,000  Level Memphis Center
Thu 09:54:56 PM 33.0631 -87.8042 231° Southwest 428 493 30,000  Level Memphis Center
Thu 09:55:56 PM 32.9922 -87.9125 232° Southwest 428 493 30,000  Level Memphis Center
Thu 09:56:57 PM 32.9211 -88.0186 231° Southwest 423 487 30,000  Level Memphis Center
Thu 09:57:56 PM 32.8481 -88.1244 231° Southwest 423 487 30,000  Level Memphis Center
Thu 09:58:56 PM 32.7789 -88.2300 232° Southwest 423 487 30,000  Level Memphis Center
Thu 09:59:56 PM 32.7056 -88.3353 230° Southwest 423 487 30,000  Level Memphis Center
Thu 10:00:56 PM 32.6300 -88.4456 231° Southwest 428 493 30,000  Level Memphis Center
Thu 10:01:56 PM 32.5586 -88.5506 231° Southwest 428 493 30,000  Level Memphis Center
Thu 10:02:56 PM 32.4847 -88.6531 229° Southwest 428 493 30,000  Level Memphis Center
Thu 10:03:56 PM 32.4111 -88.7603 231° Southwest 423 487 30,000  Level Memphis Center
Thu 10:04:56 PM 32.3308 -88.8550 225° Southwest 423 487 30,000  Level Memphis Center
Thu 10:05:56 PM 32.2422 -88.9400 219° Southwest 415 478 30,000  Level Memphis Center
Thu 10:06:56 PM 32.1511 -89.0275 219° Southwest 415 478 30,000  Level Memphis Center
Thu 10:07:56 PM 32.0622 -89.1122 219° Southwest 420 483 30,000  Level Memphis Center
Thu 10:08:56 PM 31.9733 -89.1992 220° Southwest 420 483 30,000  Level Memphis Center
Thu 10:09:56 PM 31.8822 -89.2833 218° Southwest 420 483 30,000 -218 Level Memphis Center
Thu 10:11:41 PM 31.7406 -89.4219 220° Southwest 410 472 29,400 -723 Descending Houston Center
Thu 10:12:42 PM 31.6517 -89.5058 219° Southwest 411 473 28,000 -1,328 Descending Houston Center
Thu 10:13:43 PM 31.5622 -89.5900 219° Southwest 406 467 26,700 -1,415 Descending Houston Center
Thu 10:14:45 PM 31.4767 -89.6722 219° Southwest 401 461 25,100 -1,707 Descending Houston Center
Thu 10:15:46 PM 31.3769 -89.7678 219° Southwest 389 448 23,200 -1,721 Descending Houston Center
Thu 10:16:47 PM 31.2864 -89.8322 211° Southwest 391 450 21,600 -1,574 Descending Houston Center
Thu 10:17:48 PM 31.1917 -89.8797 203° Southwest 374 430 20,000 -1,574 Descending Houston Center
Thu 10:18:49 PM 31.0981 -89.9258 203° Southwest 367 422 18,400 -1,574 Descending Houston Center
Thu 10:19:50 PM 31.0064 -89.9725 204° Southwest 362 417 16,800 -1,574 Descending Houston Center
Thu 10:20:51 PM 30.9158 -90.0169 203° Southwest 356 410 15,200 -1,525 Descending Houston Center
Thu 10:21:52 PM 30.8294 -90.0597 203° Southwest 343 395 13,700 -1,366 Descending Houston Center
Thu 10:22:54 PM 30.7428 -90.1017 203° Southwest 339 390 12,400 -1,429 Descending Houston Center
Thu 10:23:16 PM 30.6992 -90.1256 205° Southwest 336 387 11,700 -1,279 Descending Houston Center
Thu 10:23:55 PM 30.6589 -90.1439 201° Southwest 333 383 11,100 -627 Descending Houston Center
Thu 10:24:23 PM 30.6025 -90.1731 204° Southwest 328 377 11,000 -295 Descending Houston Center
Thu 10:24:56 PM 30.5594 -90.1933 202° Southwest 327 376 10,800 -300 Descending Houston Center
Thu 10:25:23 PM 30.5200 -90.2103 200° South 318 366 10,700 -787 Descending Houston Center
Thu 10:25:57 PM 30.4792 -90.2239 196° South 313 360 10,000 -1,418 Descending Houston Center
Thu 10:26:18 PM 30.4478 -90.2372 200° South 288 331 9,400 -1,770 Descending Houston Center
Thu 10:26:58 PM 30.4044 -90.2539 198° South 298 343 8,200 -1,869 Descending Houston Center
Thu 10:27:19 PM 30.3714 -90.2669 199° South 285 328 7,500 -1,869 Descending Houston Center
Thu 10:27:59 PM 30.3289 -90.2839 199° South 292 336 6,300 -1,723 Descending Houston Center
Thu 10:29:00 PM 30.2553 -90.3125 199° South 286 329 4,600 -1,349 Descending Houston Center
Thu 10:30:08 PM 30.1800 -90.3636 210° Southwest 261 300 3,400 -927 Descending Houston Center
Thu 10:31:03 PM 30.1400 -90.4075 224° Southwest 262 302 2,700 -724 Descending Houston Center
Thu 10:32:04 PM 30.0867 -90.4633 222° Southwest 202 232 2,000 -347 Descending Houston Center
Thu 10:33:04 PM 30.0447 -90.4528 168° South 174 200 2,000  Level Houston Center
Thu 10:34:05 PM 30.0267 -90.4081 115° Southeast 154 177 2,000  Level Houston Center

Login

Don't have an account? Register now (free) for customized features, flight alerts, and more!